sensor_id;sensor_type;location;lat;lon;timestamp;pressure;altitude;pressure_sealevel;temperature;humidity
53619;BME280;68717;53.040;18.488;2024-03-02T00:00:00;100826.63;;;8.79;100.00
53619;BME280;68717;53.040;18.488;2024-03-02T00:00:13;100831.97;;;8.79;100.00
53619;BME280;68717;53.040;18.488;2024-03-02T00:00:49;100835.53;;;8.80;100.00
53619;BME280;68717;53.040;18.488;2024-03-02T00:01:24;100831.88;;;8.81;100.00
53619;BME280;68717;53.040;18.488;2024-03-02T00:01:39;100830.03;;;8.81;100.00
53619;BME280;68717;53.040;18.488;2024-03-02T00:01:52;100831.88;;;8.81;100.00
53619;BME280;68717;53.040;18.488;2024-03-02T00:02:06;100835.38;;;8.81;100.00
53619;BME280;68717;53.040;18.488;2024-03-02T00:02:19;100833.69;;;8.80;100.00
53619;BME280;68717;53.040;18.488;2024-03-02T00:02:32;100833.69;;;8.80;100.00
53619;BME280;68717;53.040;18.488;2024-03-02T00:02:46;100838.78;;;8.83;100.00
53619;BME280;68717;53.040;18.488;2024-03-02T00:03:00;100832.59;;;8.83;100.00
53619;BME280;68717;53.040;18.488;2024-03-02T00:03:13;100829.09;;;8.82;100.00
53619;BME280;68717;53.040;18.488;2024-03-02T00:03:27;100831.75;;;8.82;100.00
53619;BME280;68717;53.040;18.488;2024-03-02T00:03:42;100829.09;;;8.82;100.00
53619;BME280;68717;53.040;18.488;2024-03-02T00:03:55;100836.25;;;8.82;100.00
53619;BME280;68717;53.040;18.488;2024-03-02T00:04:08;100830.03;;;8.81;100.00
53619;BME280;68717;53.040;18.488;2024-03-02T00:04:23;100833.44;;;8.83;100.00
53619;BME280;68717;53.040;18.488;2024-03-02T00:04:36;100835.28;;;8.83;100.00
53619;BME280;68717;53.040;18.488;2024-03-02T00:04:50;100833.44;;;8.83;100.00
53619;BME280;68717;53.040;18.488;2024-03-02T00:05:04;100830.91;;;8.82;100.00
53619;BME280;68717;53.040;18.488;2024-03-02T00:05:19;100839.78;;;8.82;100.00
53619;BME280;68717;53.040;18.488;2024-03-02T00:05:32;100830.03;;;8.81;100.00
53619;BME280;68717;53.040;18.488;2024-03-02T00:05:49;100832.72;;;8.81;100.00
53619;BME280;68717;53.040;18.488;2024-03-02T00:06:04;100832.72;;;8.81;100.00
53619;BME280;68717;53.040;18.488;2024-03-02T00:06:19;100835.38;;;8.81;100.00
53619;BME280;68717;53.040;18.488;2024-03-02T00:06:34;100830.03;;;8.81;100.00
53619;BME280;68717;53.040;18.488;2024-03-02T00:06:47;100832.72;;;8.81;100.00
53619;BME280;68717;53.040;18.488;2024-03-02T00:07:00;100827.34;;;8.81;100.00
53619;BME280;68717;53.040;18.488;2024-03-02T00:07:15;100831.88;;;8.81;100.00
53619;BME280;68717;53.040;18.488;2024-03-02T00:07:28;100828.34;;;8.80;100.00
53619;BME280;68717;53.040;18.488;2024-03-02T00:07:42;100834.53;;;8.81;100.00
53619;BME280;68717;53.040;18.488;2024-03-02T00:07:57;100829.19;;;8.81;100.00
53619;BME280;68717;53.040;18.488;2024-03-02T00:08:10;100830.03;;;8.81;100.00
53619;BME280;68717;53.040;18.488;2024-03-02T00:08:24;100830.03;;;8.81;100.00
53619;BME280;68717;53.040;18.488;2024-03-02T00:08:38;100823.84;;;8.81;100.00
53619;BME280;68717;53.040;18.488;2024-03-02T00:08:51;100826.41;;;8.82;100.00
53619;BME280;68717;53.040;18.488;2024-03-02T00:09:10;100832.59;;;8.83;100.00
53619;BME280;68717;53.040;18.488;2024-03-02T00:09:25;100826.41;;;8.82;100.00
53619;BME280;68717;53.040;18.488;2024-03-02T00:09:38;100827.34;;;8.81;100.00
53619;BME280;68717;53.040;18.488;2024-03-02T00:09:53;100830.03;;;8.81;100.00
53619;BME280;68717;53.040;18.488;2024-03-02T00:10:08;100831.03;;;8.80;100.00
53619;BME280;68717;53.040;18.488;2024-03-02T00:10:25;100824.69;;;8.81;100.00
53619;BME280;68717;53.040;18.488;2024-03-02T00:10:42;100827.50;;;8.80;100.00
53619;BME280;68717;53.040;18.488;2024-03-02T00:10:57;100829.19;;;8.81;100.00
53619;BME280;68717;53.040;18.488;2024-03-02T00:11:11;100831.88;;;8.81;100.00
53619;BME280;68717;53.040;18.488;2024-03-02T00:11:27;100826.63;;;8.79;100.00
53619;BME280;68717;53.040;18.488;2024-03-02T00:11:42;100831.03;;;8.80;100.00
53619;BME280;68717;53.040;18.488;2024-03-02T00:12:00;100826.53;;;8.81;100.00
53619;BME280;68717;53.040;18.488;2024-03-02T00:12:15;100824.69;;;8.81;100.00
53619;BME280;68717;53.040;18.488;2024-03-02T00:12:28;100831.75;;;8.82;100.00
53619;BME280;68717;53.040;18.488;2024-03-02T00:12:42;100828.25;;;8.82;100.00
53619;BME280;68717;53.040;18.488;2024-03-02T00:12:56;100831.88;;;8.81;100.00
53619;BME280;68717;53.040;18.488;2024-03-02T00:13:09;100823.84;;;8.81;100.00
53619;BME280;68717;53.040;18.488;2024-03-02T00:13:23;100825.69;;;8.80;100.00
53619;BME280;68717;53.040;18.488;2024-03-02T00:13:36;100829.19;;;8.81;100.00
53619;BME280;68717;53.040;18.488;2024-03-02T00:13:52;100824.69;;;8.81;100.00
53619;BME280;68717;53.040;18.488;2024-03-02T00:14:06;100822.88;;;8.82;100.00
53619;BME280;68717;53.040;18.488;2024-03-02T00:14:19;100824.69;;;8.81;100.00
53619;BME280;68717;53.040;18.488;2024-03-02T00:14:32;100830.03;;;8.81;100.00
53619;BME280;68717;53.040;18.488;2024-03-02T00:14:45;100815.72;;;8.82;100.00
53619;BME280;68717;53.040;18.488;2024-03-02T00:14:59;100831.75;;;8.82;100.00
53619;BME280;68717;53.040;18.488;2024-03-02T00:15:37;100831.75;;;8.82;100.00
53619;BME280;68717;53.040;18.488;2024-03-02T00:15:54;100824.47;;;8.85;100.00
53619;BME280;68717;53.040;18.488;2024-03-02T00:16:09;100826.31;;;8.84;100.00
53619;BME280;68717;53.040;18.488;2024-03-02T00:16:23;100825.41;;;8.83;100.00
53619;BME280;68717;53.040;18.488;2024-03-02T00:16:37;100827.25;;;8.83;100.00
53619;BME280;68717;53.040;18.488;2024-03-02T00:16:50;100829.94;;;8.83;100.00
53619;BME280;68717;53.040;18.488;2024-03-02T00:17:04;100826.41;;;8.82;100.00
53619;BME280;68717;53.040;18.488;2024-03-02T00:17:24;100836.75;;;8.87;100.00
53619;BME280;68717;53.040;18.488;2024-03-02T00:17:37;100823.38;;;8.87;100.00
53619;BME280;68717;53.040;18.488;2024-03-02T00:17:53;100827.03;;;8.86;100.00
53619;BME280;68717;53.040;18.488;2024-03-02T00:18:07;100832.38;;;8.86;100.00
53619;BME280;68717;53.040;18.488;2024-03-02T00:18:24;100827.97;;;8.85;100.00
53619;BME280;68717;53.040;18.488;2024-03-02T00:18:38;100828.97;;;8.84;100.00
53619;BME280;68717;53.040;18.488;2024-03-02T00:18:51;100826.31;;;8.84;100.00
53619;BME280;68717;53.040;18.488;2024-03-02T00:19:05;100830.78;;;8.83;100.00
53619;BME280;68717;53.040;18.488;2024-03-02T00:19:19;100827.25;;;8.83;100.00
53619;BME280;68717;53.040;18.488;2024-03-02T00:19:38;100830.91;;;8.82;100.00
53619;BME280;68717;53.040;18.488;2024-03-02T00:19:52;100828.25;;;8.82;100.00
53619;BME280;68717;53.040;18.488;2024-03-02T00:20:09;100835.38;;;8.81;100.00
53619;BME280;68717;53.040;18.488;2024-03-02T00:20:23;100829.19;;;8.81;100.00
53619;BME280;68717;53.040;18.488;2024-03-02T00:20:36;100829.19;;;8.81;100.00
53619;BME280;68717;53.040;18.488;2024-03-02T00:20:52;100829.09;;;8.82;100.00
53619;BME280;68717;53.040;18.488;2024-03-02T00:21:07;100835.38;;;8.81;100.00
53619;BME280;68717;53.040;18.488;2024-03-02T00:21:26;100824.56;;;8.83;100.00
53619;BME280;68717;53.040;18.488;2024-03-02T00:21:40;100830.03;;;8.81;100.00
53619;BME280;68717;53.040;18.488;2024-03-02T00:21:54;100825.56;;;8.82;100.00
53619;BME280;68717;53.040;18.488;2024-03-02T00:22:07;100830.03;;;8.81;100.00
53619;BME280;68717;53.040;18.488;2024-03-02T00:22:20;100828.34;;;8.80;100.00
53619;BME280;68717;53.040;18.488;2024-03-02T00:22:35;100832.72;;;8.81;100.00
53619;BME280;68717;53.040;18.488;2024-03-02T00:22:50;100833.69;;;8.80;100.00
53619;BME280;68717;53.040;18.488;2024-03-02T00:23:04;100828.34;;;8.80;100.00
53619;BME280;68717;53.040;18.488;2024-03-02T00:23:18;100826.63;;;8.79;100.00
53619;BME280;68717;53.040;18.488;2024-03-02T00:23:33;100833.69;;;8.80;100.00
53619;BME280;68717;53.040;18.488;2024-03-02T00:23:47;100829.31;;;8.79;100.00
53619;BME280;68717;53.040;18.488;2024-03-02T00:24:12;100824.94;;;8.78;100.00
53619;BME280;68717;53.040;18.488;2024-03-02T00:24:32;100829.31;;;8.79;100.00
53619;BME280;68717;53.040;18.488;2024-03-02T00:24:46;100831.13;;;8.79;100.00
53619;BME280;68717;53.040;18.488;2024-03-02T00:24:59;100823.00;;;8.80;100.00
53619;BME280;68717;53.040;18.488;2024-03-02T00:25:12;100828.34;;;8.80;100.00
53619;BME280;68717;53.040;18.488;2024-03-02T00:25:25;100824.84;;;8.80;100.00
53619;BME280;68717;53.040;18.488;2024-03-02T00:25:40;100820.44;;;8.79;100.00
53619;BME280;68717;53.040;18.488;2024-03-02T00:25:54;100826.63;;;8.79;100.00
53619;BME280;68717;53.040;18.488;2024-03-02T00:26:11;100836.38;;;8.80;100.00
53619;BME280;68717;53.040;18.488;2024-03-02T00:26:25;100825.78;;;8.79;100.00
53619;BME280;68717;53.040;18.488;2024-03-02T00:26:39;100824.94;;;8.78;100.00
53619;BME280;68717;53.040;18.488;2024-03-02T00:26:52;100828.34;;;8.80;100.00
53619;BME280;68717;53.040;18.488;2024-03-02T00:27:07;100828.34;;;8.80;100.00
53619;BME280;68717;53.040;18.488;2024-03-02T00:27:20;100833.69;;;8.80;100.00
53619;BME280;68717;53.040;18.488;2024-03-02T00:27:34;100823.00;;;8.80;100.00
53619;BME280;68717;53.040;18.488;2024-03-02T00:27:47;100818.59;;;8.79;100.00
53619;BME280;68717;53.040;18.488;2024-03-02T00:28:01;100826.63;;;8.79;100.00
53619;BME280;68717;53.040;18.488;2024-03-02T00:28:17;100827.50;;;8.80;100.00
53619;BME280;68717;53.040;18.488;2024-03-02T00:28:32;100823.94;;;8.79;100.00
53619;BME280;68717;53.040;18.488;2024-03-02T00:28:48;100831.13;;;8.79;100.00
53619;BME280;68717;53.040;18.488;2024-03-02T00:29:03;100821.28;;;8.79;100.00
53619;BME280;68717;53.040;18.488;2024-03-02T00:29:17;100827.63;;;8.78;100.00
53619;BME280;68717;53.040;18.488;2024-03-02T00:29:31;100827.63;;;8.78;100.00
53619;BME280;68717;53.040;18.488;2024-03-02T00:29:44;100820.56;;;8.77;100.00
53619;BME280;68717;53.040;18.488;2024-03-02T00:29:58;100825.94;;;8.77;100.00
53619;BME280;68717;53.040;18.488;2024-03-02T00:30:44;100828.59;;;8.77;100.00
53619;BME280;68717;53.040;18.488;2024-03-02T00:31:04;100830.28;;;8.78;100.00
53619;BME280;68717;53.040;18.488;2024-03-02T00:31:20;100828.59;;;8.77;100.00
53619;BME280;68717;53.040;18.488;2024-03-02T00:31:33;100831.28;;;8.77;100.00
53619;BME280;68717;53.040;18.488;2024-03-02T00:31:46;100831.28;;;8.77;100.00
53619;BME280;68717;53.040;18.488;2024-03-02T00:32:01;100827.50;;;8.80;100.00
53619;BME280;68717;53.040;18.488;2024-03-02T00:32:16;100833.69;;;8.80;100.00
53619;BME280;68717;53.040;18.488;2024-03-02T00:32:29;100831.88;;;8.81;100.00
53619;BME280;68717;53.040;18.488;2024-03-02T00:32:43;100830.19;;;8.80;100.00
53619;BME280;68717;53.040;18.488;2024-03-02T00:32:56;100826.63;;;8.79;100.00
53619;BME280;68717;53.040;18.488;2024-03-02T00:33:09;100829.31;;;8.79;100.00
53619;BME280;68717;53.040;18.488;2024-03-02T00:33:25;100831.97;;;8.79;100.00
53619;BME280;68717;53.040;18.488;2024-03-02T00:33:42;100819.59;;;8.78;100.00
53619;BME280;68717;53.040;18.488;2024-03-02T00:33:55;100830.28;;;8.78;100.00
53619;BME280;68717;53.040;18.488;2024-03-02T00:34:08;100827.63;;;8.78;100.00
53619;BME280;68717;53.040;18.488;2024-03-02T00:34:23;100830.28;;;8.78;100.00
53619;BME280;68717;53.040;18.488;2024-03-02T00:34:38;100827.63;;;8.78;100.00
53619;BME280;68717;53.040;18.488;2024-03-02T00:34:51;100826.78;;;8.78;100.00
53619;BME280;68717;53.040;18.488;2024-03-02T00:35:05;100827.72;;;8.77;100.00
53619;BME280;68717;53.040;18.488;2024-03-02T00:35:23;100830.28;;;8.78;100.00
53619;BME280;68717;53.040;18.488;2024-03-02T00:35:36;100829.31;;;8.79;100.00
53619;BME280;68717;53.040;18.488;2024-03-02T00:35:49;100827.50;;;8.80;100.00
53619;BME280;68717;53.040;18.488;2024-03-02T00:36:03;100826.63;;;8.79;100.00
53619;BME280;68717;53.040;18.488;2024-03-02T00:36:22;100830.19;;;8.80;100.00
53619;BME280;68717;53.040;18.488;2024-03-02T00:36:37;100833.81;;;8.79;100.00
53619;BME280;68717;53.040;18.488;2024-03-02T00:36:51;100831.13;;;8.79;100.00
53619;BME280;68717;53.040;18.488;2024-03-02T00:37:04;100830.28;;;8.78;100.00
53619;BME280;68717;53.040;18.488;2024-03-02T00:37:18;100833.94;;;8.77;100.00
53619;BME280;68717;53.040;18.488;2024-03-02T00:37:31;100829.44;;;8.78;100.00
53619;BME280;68717;53.040;18.488;2024-03-02T00:37:45;100831.28;;;8.77;100.00
53619;BME280;68717;53.040;18.488;2024-03-02T00:37:58;100832.22;;;8.76;100.00
53619;BME280;68717;53.040;18.488;2024-03-02T00:38:11;100826.88;;;8.76;100.00
53619;BME280;68717;53.040;18.488;2024-03-02T00:38:25;100826.03;;;8.76;100.00
53619;BME280;68717;53.040;18.488;2024-03-02T00:38:46;100820.69;;;8.76;100.00
53619;BME280;68717;53.040;18.488;2024-03-02T00:39:01;100831.38;;;8.76;100.00
53619;BME280;68717;53.040;18.488;2024-03-02T00:39:16;100832.34;;;8.75;100.00
53619;BME280;68717;53.040;18.488;2024-03-02T00:39:31;100826.16;;;8.74;100.00
53619;BME280;68717;53.040;18.488;2024-03-02T00:39:48;100832.47;;;8.73;100.00
53619;BME280;68717;53.040;18.488;2024-03-02T00:40:02;100827.13;;;8.73;100.00
53619;BME280;68717;53.040;18.488;2024-03-02T00:40:17;100824.31;;;8.75;100.00
53619;BME280;68717;53.040;18.488;2024-03-02T00:40:32;100829.66;;;8.75;100.00
53619;BME280;68717;53.040;18.488;2024-03-02T00:40:45;100825.31;;;8.74;100.00
53619;BME280;68717;53.040;18.488;2024-03-02T00:41:00;100828.81;;;8.74;100.00
53619;BME280;68717;53.040;18.488;2024-03-02T00:41:21;100828.81;;;8.74;100.00
53619;BME280;68717;53.040;18.488;2024-03-02T00:41:35;100825.41;;;8.72;100.00
53619;BME280;68717;53.040;18.488;2024-03-02T00:41:48;100833.31;;;8.74;100.00
53619;BME280;68717;53.040;18.488;2024-03-02T00:42:01;100828.94;;;8.73;100.00
53619;BME280;68717;53.040;18.488;2024-03-02T00:42:14;100832.47;;;8.73;100.00
53619;BME280;68717;53.040;18.488;2024-03-02T00:42:28;100827.13;;;8.73;100.00
53619;BME280;68717;53.040;18.488;2024-03-02T00:42:41;100832.47;;;8.73;100.00
53619;BME280;68717;53.040;18.488;2024-03-02T00:42:54;100822.72;;;8.72;100.00
53619;BME280;68717;53.040;18.488;2024-03-02T00:43:11;100826.25;;;8.73;100.00
53619;BME280;68717;53.040;18.488;2024-03-02T00:43:43;100829.81;;;8.73;100.00
53619;BME280;68717;53.040;18.488;2024-03-02T00:44:00;100824.47;;;8.73;100.00
53619;BME280;68717;53.040;18.488;2024-03-02T00:44:15;100824.47;;;8.73;100.00
53619;BME280;68717;53.040;18.488;2024-03-02T00:44:29;100827.97;;;8.74;100.00
53619;BME280;68717;53.040;18.488;2024-03-02T00:44:46;100822.63;;;8.74;100.00
53619;BME280;68717;53.040;18.488;2024-03-02T00:45:00;100823.47;;;8.74;100.00
53619;BME280;68717;53.040;18.488;2024-03-02T00:45:13;100827.13;;;8.73;100.00
53619;BME280;68717;53.040;18.488;2024-03-02T00:45:26;100828.81;;;8.74;100.00
53619;BME280;68717;53.040;18.488;2024-03-02T00:45:39;100825.31;;;8.74;100.00
53619;BME280;68717;53.040;18.488;2024-03-02T00:45:53;100827.13;;;8.73;100.00
53619;BME280;68717;53.040;18.488;2024-03-02T00:46:07;100824.47;;;8.73;100.00
53619;BME280;68717;53.040;18.488;2024-03-02T00:46:23;100824.22;;;8.76;100.00
53619;BME280;68717;53.040;18.488;2024-03-02T00:46:38;100821.53;;;8.76;100.00
53619;BME280;68717;53.040;18.488;2024-03-02T00:46:51;100822.38;;;8.77;100.00
53619;BME280;68717;53.040;18.488;2024-03-02T00:47:05;100825.19;;;8.75;100.00
53619;BME280;68717;53.040;18.488;2024-03-02T00:47:19;100824.31;;;8.75;100.00
53619;BME280;68717;53.040;18.488;2024-03-02T00:47:32;100822.63;;;8.74;100.00
53619;BME280;68717;53.040;18.488;2024-03-02T00:47:50;100823.47;;;8.74;100.00
53619;BME280;68717;53.040;18.488;2024-03-02T00:48:04;100821.78;;;8.73;100.00
53619;BME280;68717;53.040;18.488;2024-03-02T00:48:17;100812.78;;;8.74;100.00
53619;BME280;68717;53.040;18.488;2024-03-02T00:48:30;100818.97;;;8.75;100.00
53619;BME280;68717;53.040;18.488;2024-03-02T00:48:54;100823.47;;;8.74;100.00
53619;BME280;68717;53.040;18.488;2024-03-02T00:49:12;100821.53;;;8.76;100.00
53619;BME280;68717;53.040;18.488;2024-03-02T00:49:30;100817.03;;;8.77;100.00
53619;BME280;68717;53.040;18.488;2024-03-02T00:49:46;100818.88;;;8.76;100.00
53619;BME280;68717;53.040;18.488;2024-03-02T00:50:00;100811.94;;;8.74;100.00
53619;BME280;68717;53.040;18.488;2024-03-02T00:50:15;100818.97;;;8.75;100.00
53619;BME280;68717;53.040;18.488;2024-03-02T00:50:42;100819.13;;;8.73;100.00
53619;BME280;68717;53.040;18.488;2024-03-02T00:50:55;100826.25;;;8.73;100.00
53619;BME280;68717;53.040;18.488;2024-03-02T00:51:08;100819.59;;;8.78;100.00
53619;BME280;68717;53.040;18.488;2024-03-02T00:51:21;100824.09;;;8.78;100.00
53619;BME280;68717;53.040;18.488;2024-03-02T00:51:35;100819.69;;;8.77;100.00
53619;BME280;68717;53.040;18.488;2024-03-02T00:51:51;100819.84;;;8.75;100.00
53619;BME280;68717;53.040;18.488;2024-03-02T00:52:05;100826.16;;;8.74;100.00
53619;BME280;68717;53.040;18.488;2024-03-02T00:52:19;100824.47;;;8.73;100.00
53619;BME280;68717;53.040;18.488;2024-03-02T00:52:32;100817.28;;;8.74;100.00
53619;BME280;68717;53.040;18.488;2024-03-02T00:52:46;100816.44;;;8.73;100.00
53619;BME280;68717;53.040;18.488;2024-03-02T00:53:01;100822.72;;;8.72;100.00
53619;BME280;68717;53.040;18.488;2024-03-02T00:53:15;100814.72;;;8.72;100.00
53619;BME280;68717;53.040;18.488;2024-03-02T00:53:28;100816.53;;;8.72;100.00
53619;BME280;68717;53.040;18.488;2024-03-02T00:53:41;100823.72;;;8.71;100.00
53619;BME280;68717;53.040;18.488;2024-03-02T00:53:58;100816.66;;;8.70;100.00
53619;BME280;68717;53.040;18.488;2024-03-02T00:54:13;100825.53;;;8.71;100.00
53619;BME280;68717;53.040;18.488;2024-03-02T00:54:28;100823.00;;;8.69;100.00
53619;BME280;68717;53.040;18.488;2024-03-02T00:54:42;100815.81;;;8.70;100.00
53619;BME280;68717;53.040;18.488;2024-03-02T00:54:57;100820.31;;;8.69;100.00
53619;BME280;68717;53.040;18.488;2024-03-02T00:55:10;100820.31;;;8.69;100.00
53619;BME280;68717;53.040;18.488;2024-03-02T00:55:24;100818.59;;;8.68;100.00
53619;BME280;68717;53.040;18.488;2024-03-02T00:55:37;100815.91;;;8.68;100.00
53619;BME280;68717;53.040;18.488;2024-03-02T00:55:51;100814.97;;;8.69;100.00
53619;BME280;68717;53.040;18.488;2024-03-02T00:56:09;100810.56;;;8.68;100.00
53619;BME280;68717;53.040;18.488;2024-03-02T00:56:23;100812.41;;;8.68;100.00
53619;BME280;68717;53.040;18.488;2024-03-02T00:56:37;100812.28;;;8.69;100.00
53619;BME280;68717;53.040;18.488;2024-03-02T00:56:51;100819.47;;;8.69;100.00
53619;BME280;68717;53.040;18.488;2024-03-02T00:57:04;100817.66;;;8.69;100.00
53619;BME280;68717;53.040;18.488;2024-03-02T00:57:17;100819.47;;;8.69;100.00
53619;BME280;68717;53.040;18.488;2024-03-02T00:57:32;100817.75;;;8.68;100.00
53619;BME280;68717;53.040;18.488;2024-03-02T00:57:47;100819.56;;;8.67;100.00
53619;BME280;68717;53.040;18.488;2024-03-02T00:58:00;100816.06;;;8.67;100.00
53619;BME280;68717;53.040;18.488;2024-03-02T00:58:13;100806.22;;;8.67;100.00
53619;BME280;68717;53.040;18.488;2024-03-02T00:58:26;100812.41;;;8.68;100.00
53619;BME280;68717;53.040;18.488;2024-03-02T00:58:39;100823.00;;;8.69;100.00
53619;BME280;68717;53.040;18.488;2024-03-02T00:58:53;100808.88;;;8.67;100.00
53619;BME280;68717;53.040;18.488;2024-03-02T00:59:06;100816.91;;;8.67;100.00
53619;BME280;68717;53.040;18.488;2024-03-02T00:59:21;100811.56;;;8.67;100.00
53619;BME280;68717;53.040;18.488;2024-03-02T00:59:34;100812.41;;;8.68;100.00
53619;BME280;68717;53.040;18.488;2024-03-02T00:59:47;100813.38;;;8.67;100.00
53619;BME280;68717;53.040;18.488;2024-03-02T01:00:01;100817.88;;;8.66;100.00
53619;BME280;68717;53.040;18.488;2024-03-02T01:00:15;100810.72;;;8.67;100.00
53619;BME280;68717;53.040;18.488;2024-03-02T01:00:30;100806.31;;;8.66;100.00
53619;BME280;68717;53.040;18.488;2024-03-02T01:00:44;100816.16;;;8.65;100.00
53619;BME280;68717;53.040;18.488;2024-03-02T01:00:58;100811.78;;;8.64;100.00
53619;BME280;68717;53.040;18.488;2024-03-02T01:01:11;100818.00;;;8.65;100.00
53619;BME280;68717;53.040;18.488;2024-03-02T01:01:24;100810.81;;;8.65;100.00
53619;BME280;68717;53.040;18.488;2024-03-02T01:01:37;100811.78;;;8.64;100.00
53619;BME280;68717;53.040;18.488;2024-03-02T01:01:51;100811.78;;;8.64;100.00
53619;BME280;68717;53.040;18.488;2024-03-02T01:02:06;100818.84;;;8.65;100.00
53619;BME280;68717;53.040;18.488;2024-03-02T01:02:19;100809.09;;;8.64;100.00
53619;BME280;68717;53.040;18.488;2024-03-02T01:02:32;100805.47;;;8.65;100.00
53619;BME280;68717;53.040;18.488;2024-03-02T01:02:45;100810.81;;;8.65;100.00
53619;BME280;68717;53.040;18.488;2024-03-02T01:02:59;100808.16;;;8.65;100.00
53619;BME280;68717;53.040;18.488;2024-03-02T01:03:12;100808.16;;;8.65;100.00
53619;BME280;68717;53.040;18.488;2024-03-02T01:03:25;100810.81;;;8.65;100.00
53619;BME280;68717;53.040;18.488;2024-03-02T01:03:38;100807.31;;;8.65;100.00
53619;BME280;68717;53.040;18.488;2024-03-02T01:03:54;100805.47;;;8.65;100.00
53619;BME280;68717;53.040;18.488;2024-03-02T01:04:07;100805.47;;;8.65;100.00
53619;BME280;68717;53.040;18.488;2024-03-02T01:04:21;100801.97;;;8.65;100.00
53619;BME280;68717;53.040;18.488;2024-03-02T01:04:34;100806.44;;;8.64;100.00
53619;BME280;68717;53.040;18.488;2024-03-02T01:04:48;100805.47;;;8.65;100.00
53619;BME280;68717;53.040;18.488;2024-03-02T01:05:01;100802.81;;;8.65;100.00
53619;BME280;68717;53.040;18.488;2024-03-02T01:05:14;100805.47;;;8.65;100.00
53619;BME280;68717;53.040;18.488;2024-03-02T01:05:29;100799.28;;;8.65;100.00
53619;BME280;68717;53.040;18.488;2024-03-02T01:05:42;100800.13;;;8.65;100.00
53619;BME280;68717;53.040;18.488;2024-03-02T01:05:55;100805.47;;;8.65;100.00
53619;BME280;68717;53.040;18.488;2024-03-02T01:06:09;100805.47;;;8.65;100.00
53619;BME280;68717;53.040;18.488;2024-03-02T01:06:22;100807.31;;;8.65;100.00
53619;BME280;68717;53.040;18.488;2024-03-02T01:06:35;100804.63;;;8.65;100.00
53619;BME280;68717;53.040;18.488;2024-03-02T01:06:48;100802.81;;;8.65;100.00
53619;BME280;68717;53.040;18.488;2024-03-02T01:07:03;100809.09;;;8.64;100.00
53619;BME280;68717;53.040;18.488;2024-03-02T01:07:16;100796.63;;;8.65;100.00
53619;BME280;68717;53.040;18.488;2024-03-02T01:07:29;100803.75;;;8.64;100.00
53619;BME280;68717;53.040;18.488;2024-03-02T01:07:42;100799.28;;;8.65;100.00
53619;BME280;68717;53.040;18.488;2024-03-02T01:07:55;100802.81;;;8.65;100.00
53619;BME280;68717;53.040;18.488;2024-03-02T01:08:08;100794.78;;;8.65;100.00
53619;BME280;68717;53.040;18.488;2024-03-02T01:08:21;100802.81;;;8.65;100.00
53619;BME280;68717;53.040;18.488;2024-03-02T01:08:34;100792.13;;;8.65;100.00
53619;BME280;68717;53.040;18.488;2024-03-02T01:08:47;100802.81;;;8.65;100.00
53619;BME280;68717;53.040;18.488;2024-03-02T01:09:05;100797.47;;;8.65;100.00
53619;BME280;68717;53.040;18.488;2024-03-02T01:09:19;100799.28;;;8.65;100.00
53619;BME280;68717;53.040;18.488;2024-03-02T01:09:32;100797.47;;;8.65;100.00
53619;BME280;68717;53.040;18.488;2024-03-02T01:09:45;100798.41;;;8.64;100.00
53619;BME280;68717;53.040;18.488;2024-03-02T01:09:58;100805.47;;;8.65;100.00
53619;BME280;68717;53.040;18.488;2024-03-02T01:10:12;100797.47;;;8.65;100.00
53619;BME280;68717;53.040;18.488;2024-03-02T01:10:25;100797.47;;;8.65;100.00
53619;BME280;68717;53.040;18.488;2024-03-02T01:10:38;100804.50;;;8.66;100.00
53619;BME280;68717;53.040;18.488;2024-03-02T01:10:51;100799.16;;;8.66;100.00
53619;BME280;68717;53.040;18.488;2024-03-02T01:11:04;100797.47;;;8.65;100.00
53619;BME280;68717;53.040;18.488;2024-03-02T01:11:18;100796.47;;;8.66;100.00
53619;BME280;68717;53.040;18.488;2024-03-02T01:11:35;100801.81;;;8.66;100.00
53619;BME280;68717;53.040;18.488;2024-03-02T01:11:48;100808.16;;;8.65;100.00
53619;BME280;68717;53.040;18.488;2024-03-02T01:12:02;100803.66;;;8.66;100.00
53619;BME280;68717;53.040;18.488;2024-03-02T01:12:15;100801.81;;;8.66;100.00
53619;BME280;68717;53.040;18.488;2024-03-02T01:12:28;100802.69;;;8.67;100.00
53619;BME280;68717;53.040;18.488;2024-03-02T01:12:41;100809.84;;;8.66;100.00
53619;BME280;68717;53.040;18.488;2024-03-02T01:12:54;100802.69;;;8.67;100.00
53619;BME280;68717;53.040;18.488;2024-03-02T01:13:08;100802.69;;;8.67;100.00
53619;BME280;68717;53.040;18.488;2024-03-02T01:13:21;100811.56;;;8.67;100.00
53619;BME280;68717;53.040;18.488;2024-03-02T01:13:36;100810.72;;;8.67;100.00
53619;BME280;68717;53.040;18.488;2024-03-02T01:13:49;100803.53;;;8.67;100.00
53619;BME280;68717;53.040;18.488;2024-03-02T01:14:02;100802.69;;;8.67;100.00
53619;BME280;68717;53.040;18.488;2024-03-02T01:14:15;100802.56;;;8.68;100.00
53619;BME280;68717;53.040;18.488;2024-03-02T01:14:28;100804.38;;;8.68;100.00
53619;BME280;68717;53.040;18.488;2024-03-02T01:14:41;100807.06;;;8.68;100.00
53619;BME280;68717;53.040;18.488;2024-03-02T01:14:55;100802.56;;;8.68;100.00
53619;BME280;68717;53.040;18.488;2024-03-02T01:15:08;100798.94;;;8.69;100.00
53619;BME280;68717;53.040;18.488;2024-03-02T01:15:21;100803.44;;;8.69;100.00
53619;BME280;68717;53.040;18.488;2024-03-02T01:15:36;100806.94;;;8.69;100.00
53619;BME280;68717;53.040;18.488;2024-03-02T01:15:49;100802.34;;;8.71;100.00